CMA CGM Columba — 2DBC9 — position and weather

sailwx.info

Track history (hours):
 
Tides and Currents Weather Stations Pressure Air Temp Water Temp Dewpoint Dewpoint Depression Visibility Wind Speed Wind Dir Waves Ship Positions

CMA CGM Columba

Last reported at 2016-Sep-24 22:28 UTC. Time now 2016-Sep-25 00:21 UTC.
Position N 24°27' E 118°01'.

Length 363 m; draft 10.8 m.

Type: Ship (hazmat cat A). MMSI: 235077448.

Date/timePositionNaut miles runAvg speedWind from/ knotsBaromVisibWave heightAir tempDewpointWater temp
2016-Sep-24 22:28N 24°27' E 118°01'0 0.1
2016-Sep-24 21:31N 24°27' E 118°01'0 0.0
2016-Sep-24 19:31N 24°27' E 118°01'0 0.1
2016-Sep-24 18:31N 24°27' E 118°01'0 0.1
2016-Sep-24 17:32N 24°27' E 118°01'0 0.1
2016-Sep-24 16:33N 24°27' E 118°01'0 0.0
2016-Sep-24 14:15N 24°27' E 118°01'0 0.0
2016-Sep-24 12:33N 24°27' E 118°01'0 0.0
2016-Sep-24 10:33N 24°27' E 118°01'0 0.0
2016-Sep-24 09:33N 24°27' E 118°01'6110.2
2016-Sep-24 03:33N 24°31' E 119°08'1515.3
2016-Sep-24 02:33N 24°41' E 119°21'44 4.4
2016-Sep-23 16:30N 25°25' E 119°17'0 0.0
2016-Sep-23 15:30N 25°25' E 119°17'0 0.0
2016-Sep-23 13:30N 25°25' E 119°17'0 0.0
2016-Sep-23 09:30N 25°25' E 119°17'0 0.0
2016-Sep-23 06:30N 25°25' E 119°17'0 0.0
2016-Sep-23 04:30N 25°25' E 119°17'1 0.6
2016-Sep-23 03:33N 25°25' E 119°17'1211.9
2016-Sep-23 02:34N 25°19' E 119°29'10 0.5
2016-Sep-22 04:32N 25°17' E 119°40'0 0.0
2016-Sep-21 19:14N 25°17' E 119°40'0 0.1
2016-Sep-21 16:32N 25°17' E 119°40'0 0.0
2016-Sep-20 17:32N 25°17' E 119°40'0 0.0
2016-Sep-20 14:32N 25°17' E 119°40'0 0.0
2016-Sep-20 13:32N 25°17' E 119°40'0 0.1
2016-Sep-20 08:14N 25°17' E 119°40'0 0.1
2016-Sep-20 02:32N 25°17' E 119°40'8 2.8
2016-Sep-19 23:32N 25°12' E 119°47'  
Track history (hours):
 
Tides and Currents Weather Stations Pressure Air Temp Water Temp Dewpoint Dewpoint Depression Visibility Wind Speed Wind Dir Waves Ship Positions

CMA CGM Columba

Last reported at 2016-Sep-24 22:28 UTC. Time now 2016-Sep-25 00:21 UTC.
Position N 24°27' E 118°01'.

Length 363 m; draft 10.8 m.

Type: Ship (hazmat cat A). MMSI: 235077448.

Date/timePositionNaut miles runAvg speedWind from/ knotsBaromVisibWave heightAir tempDewpointWater temp
2016-Sep-24 22:28N 24°27' E 118°01'0 0.1
2016-Sep-24 21:31N 24°27' E 118°01'0 0.0
2016-Sep-24 19:31N 24°27' E 118°01'0 0.1
2016-Sep-24 18:31N 24°27' E 118°01'0 0.1
2016-Sep-24 17:32N 24°27' E 118°01'0 0.1
2016-Sep-24 16:33N 24°27' E 118°01'0 0.0
2016-Sep-24 14:15N 24°27' E 118°01'0 0.0
2016-Sep-24 12:33N 24°27' E 118°01'0 0.0
2016-Sep-24 10:33N 24°27' E 118°01'0 0.0
2016-Sep-24 09:33N 24°27' E 118°01'6110.2
2016-Sep-24 03:33N 24°31' E 119°08'1515.3
2016-Sep-24 02:33N 24°41' E 119°21'44 4.4
2016-Sep-23 16:30N 25°25' E 119°17'0 0.0
2016-Sep-23 15:30N 25°25' E 119°17'0 0.0
2016-Sep-23 13:30N 25°25' E 119°17'0 0.0
2016-Sep-23 09:30N 25°25' E 119°17'0 0.0
2016-Sep-23 06:30N 25°25' E 119°17'0 0.0
2016-Sep-23 04:30N 25°25' E 119°17'1 0.6
2016-Sep-23 03:33N 25°25' E 119°17'1211.9
2016-Sep-23 02:34N 25°19' E 119°29'10 0.5
2016-Sep-22 04:32N 25°17' E 119°40'0 0.0
2016-Sep-21 19:14N 25°17' E 119°40'0 0.1
2016-Sep-21 16:32N 25°17' E 119°40'0 0.0
2016-Sep-20 17:32N 25°17' E 119°40'0 0.0
2016-Sep-20 14:32N 25°17' E 119°40'0 0.0
2016-Sep-20 13:32N 25°17' E 119°40'0 0.1
2016-Sep-20 08:14N 25°17' E 119°40'0 0.1
2016-Sep-20 02:32N 25°17' E 119°40'8 2.8
2016-Sep-19 23:32N 25°12' E 119°47'  

Dump ship's entire track history